LVLHI ZZZZ-SANT
Flight info
| Callsign | LVLHI |
|---|---|
| Flight time | N/A |
| Altitude | 4000 |
| Route | DCT |
| Aircraft | C414/M-V/N |
Departure
| Time | N/A |
|---|---|
| Airport | ZZZZ |
Arrival
| Time | 2026-05-04 20:40 |
|---|---|
| Airport | Teniente Benjamín Matienzo International Airport (SANT) |
| Time | Latitude | Longitude | Altitude | Speed | Heading |
|---|---|---|---|---|---|
| 2026-05-04 20:28 | -26.79502 | -65.31441 | 1923 ft | 0 kts | 193° |
| 2026-05-04 20:30 | -26.79504 | -65.31441 | 1923 ft | 3 kts | 193° |
| 2026-05-04 20:30 | -26.79529 | -65.31415 | 1918 ft | 20 kts | 98° |
| 2026-05-04 20:30 | -26.79590 | -65.31016 | 1884 ft | 81 kts | 100° |
| 2026-05-04 20:31 | -26.79719 | -65.30314 | 2080 ft | 95 kts | 105° |
| 2026-05-04 20:31 | -26.79853 | -65.29558 | 2397 ft | 102 kts | 82° |
| 2026-05-04 20:31 | -26.79459 | -65.28869 | 2636 ft | 122 kts | 53° |
| 2026-05-04 20:31 | -26.79388 | -65.27857 | 2712 ft | 145 kts | 109° |
| 2026-05-04 20:32 | -26.79769 | -65.26754 | 2922 ft | 150 kts | 110° |
| 2026-05-04 20:32 | -26.80170 | -65.25618 | 3025 ft | 165 kts | 109° |
| 2026-05-04 20:32 | -26.80455 | -65.24344 | 3085 ft | 174 kts | 101° |
| 2026-05-04 20:32 | -26.80708 | -65.22988 | 3116 ft | 181 kts | 101° |
| 2026-05-04 20:33 | -26.81003 | -65.21591 | 3154 ft | 185 kts | 104° |
| 2026-05-04 20:33 | -26.81371 | -65.20217 | 3190 ft | 185 kts | 108° |
| 2026-05-04 20:33 | -26.81794 | -65.18879 | 3203 ft | 183 kts | 115° |
| 2026-05-04 20:33 | -26.82773 | -65.17960 | 3085 ft | 192 kts | 161° |
| 2026-05-04 20:34 | -26.84079 | -65.18033 | 3008 ft | 195 kts | 194° |
| 2026-05-04 20:34 | -26.85368 | -65.18460 | 3053 ft | 191 kts | 196° |
| 2026-05-04 20:34 | -26.86641 | -65.18924 | 3070 ft | 191 kts | 197° |
| 2026-05-04 20:34 | -26.87913 | -65.19303 | 3133 ft | 184 kts | 189° |
| 2026-05-04 20:35 | -26.89144 | -65.19298 | 3142 ft | 174 kts | 159° |
| 2026-05-04 20:35 | -26.90050 | -65.18490 | 3033 ft | 167 kts | 117° |
| 2026-05-04 20:35 | -26.90441 | -65.17268 | 2937 ft | 165 kts | 104° |
| 2026-05-04 20:35 | -26.90770 | -65.16040 | 2824 ft | 164 kts | 102° |
| 2026-05-04 20:36 | -26.91045 | -65.14837 | 2907 ft | 157 kts | 101° |
| 2026-05-04 20:36 | -26.91279 | -65.13647 | 2679 ft | 160 kts | 95° |
| 2026-05-04 20:36 | -26.91089 | -65.12478 | 2558 ft | 153 kts | 57° |
| 2026-05-04 20:36 | -26.90278 | -65.11794 | 2397 ft | 145 kts | 23° |
| 2026-05-04 20:37 | -26.89358 | -65.11497 | 2346 ft | 133 kts | 9° |
| 2026-05-04 20:37 | -26.88462 | -65.11360 | 2203 ft | 130 kts | 8° |
| 2026-05-04 20:37 | -26.88441 | -65.11357 | 2199 ft | 130 kts | 8° |
| 2026-05-04 20:38 | -26.87905 | -65.11272 | 2078 ft | 130 kts | 9° |
| 2026-05-04 20:39 | -26.87025 | -65.11053 | 1902 ft | 129 kts | 10° |
| 2026-05-04 20:39 | -26.86188 | -65.10892 | 1740 ft | 115 kts | 6° |
| 2026-05-04 20:39 | -26.85426 | -65.10744 | 1565 ft | 108 kts | 7° |
| 2026-05-04 20:39 | -26.84727 | -65.10607 | 1490 ft | 92 kts | 8° |
| 2026-05-04 20:40 | -26.84157 | -65.10488 | 1482 ft | 75 kts | 9° |
| 2026-05-04 20:40 | -26.83738 | -65.10413 | 1489 ft | 32 kts | 354° |
| 2026-05-04 20:40 | -26.83537 | -65.10382 | 1488 ft | 27 kts | 1° |
| 2026-05-04 20:40 | -26.83369 | -65.10429 | 1488 ft | 23 kts | 344° |
| 2026-05-04 20:41 | -26.83343 | -65.10548 | 1481 ft | 17 kts | 231° |
| 2026-05-04 20:41 | -26.83422 | -65.10635 | 1485 ft | 14 kts | 222° |
| 2026-05-04 20:41 | -26.83496 | -65.10688 | 1487 ft | 11 kts | 197° |
| 2026-05-04 20:41 | -26.83566 | -65.10701 | 1484 ft | 9 kts | 188° |
| 2026-05-04 20:42 | -26.83621 | -65.10712 | 1484 ft | 7 kts | 193° |
| 2026-05-04 20:42 | -26.83651 | -65.10734 | 1487 ft | 6 kts | 257° |
| 2026-05-04 20:42 | -26.83650 | -65.10767 | 1487 ft | 0 kts | 280° |
| 2026-05-04 20:42 | -26.83649 | -65.10773 | 1487 ft | 2 kts | 288° |
| 2026-05-04 20:43 | -26.83647 | -65.10776 | 1487 ft | 0 kts | 331° |
| 2026-05-04 20:43 | -26.83643 | -65.10777 | 1487 ft | 1 kts | 3° |
| 2026-05-04 20:43 | -26.83639 | -65.10773 | 1476 ft | 2 kts | 71° |
| 2026-05-04 20:43 | -26.83639 | -65.10772 | 1477 ft | 0 kts | 61° |